createdAt,value
2023-03-29T00:02:19.699Z,101588.19
2023-03-29T00:04:47.074Z,101588.19
2023-03-29T00:07:14.260Z,101587.66
2023-03-29T00:09:41.707Z,101581.38
2023-03-29T00:12:08.633Z,101586.84
2023-03-29T00:14:35.505Z,101593.16
2023-03-29T00:17:02.779Z,101590.94
2023-03-29T00:19:35.546Z,101583.00
2023-03-29T00:22:08.505Z,101585.47
2023-03-29T00:24:38.269Z,101575.28
2023-03-29T00:27:05.425Z,101575.81
2023-03-29T00:29:32.777Z,101576.31
2023-03-29T00:31:59.816Z,101573.88
2023-03-29T00:34:36.197Z,101565.34
2023-03-29T00:37:04.310Z,101560.19
2023-03-29T00:39:31.369Z,101552.28
2023-03-29T00:41:58.354Z,101550.38
2023-03-29T00:45:08.179Z,101548.44
2023-03-29T00:47:42.747Z,101537.50
2023-03-29T00:50:25.963Z,101538.28
2023-03-29T00:53:17.672Z,101534.78
2023-03-29T00:55:49.907Z,101522.53
2023-03-29T00:58:25.049Z,101525.75
2023-03-29T01:01:02.446Z,101521.38
2023-03-29T01:03:35.591Z,101527.19
2023-03-29T01:06:09.296Z,101514.94
2023-03-29T01:08:43.914Z,101512.97
2023-03-29T01:11:27.526Z,101515.72
2023-03-29T01:14:03.836Z,101513.31
2023-03-29T01:16:33.118Z,101501.56
2023-03-29T01:19:02.324Z,101503.66
2023-03-29T01:21:33.321Z,101502.22
2023-03-29T01:24:16.375Z,101500.94
2023-03-29T01:26:48.972Z,101505.09
2023-03-29T01:29:23.786Z,101501.88
2023-03-29T01:31:58.159Z,101499.13
2023-03-29T01:34:40.143Z,101499.91
2023-03-29T01:37:25.048Z,101497.03
2023-03-29T01:39:52.866Z,101486.56
2023-03-29T01:42:42.881Z,101489.78
2023-03-29T01:45:27.378Z,101481.59
2023-03-29T01:48:02.180Z,101477.25
2023-03-29T01:50:48.541Z,101478.84
2023-03-29T01:53:28.552Z,101480.16
2023-03-29T01:55:59.150Z,101474.69
2023-03-29T01:58:34.209Z,101462.13
2023-03-29T02:01:05.946Z,101454.41
2023-03-29T02:03:42.411Z,101452.97
2023-03-29T02:06:12.161Z,101443.19
2023-03-29T02:08:41.846Z,101442.84
2023-03-29T02:11:09.459Z,101442.53
2023-03-29T02:13:36.863Z,101437.84
2023-03-29T02:16:11.462Z,101435.13
2023-03-29T02:18:41.350Z,101428.25
2023-03-29T02:21:09.422Z,101428.25
2023-03-29T02:23:45.438Z,101431.78
2023-03-29T02:26:14.484Z,101426.50
2023-03-29T02:28:42.557Z,101432.47
2023-03-29T02:31:15.968Z,101421.84
2023-03-29T02:33:45.760Z,101418.78
2023-03-29T02:36:19.970Z,101415.75
2023-03-29T02:38:47.792Z,101418.47
2023-03-29T02:41:16.591Z,101418.78
2023-03-29T02:43:46.629Z,101411.72
2023-03-29T02:46:16.194Z,101416.84
2023-03-29T02:48:45.668Z,101412.19
2023-03-29T02:51:20.332Z,101410.09
2023-03-29T02:54:01.763Z,101407.16
2023-03-29T02:56:29.455Z,101413.31
2023-03-29T02:58:56.424Z,101406.72
2023-03-29T03:01:23.784Z,101400.75
2023-03-29T03:03:52.213Z,101401.56
2023-03-29T03:06:21.334Z,101405.59
2023-03-29T03:08:48.711Z,101397.41
2023-03-29T03:11:16.187Z,101394.66
2023-03-29T03:13:43.204Z,101392.41
2023-03-29T03:16:10.391Z,101383.09
2023-03-29T03:18:38.636Z,101386.94
2023-03-29T03:21:06.033Z,101377.63
2023-03-29T03:23:33.060Z,101376.00
2023-03-29T03:26:00.319Z,101379.22
2023-03-29T03:28:28.805Z,101371.00
2023-03-29T03:30:56.197Z,101366.03
2023-03-29T03:33:23.382Z,101355.56
2023-03-29T03:36:11.315Z,101366.53
2023-03-29T03:38:38.952Z,101367.63
2023-03-29T03:41:07.292Z,101359.13
2023-03-29T03:43:35.225Z,101359.13
2023-03-29T03:46:02.538Z,101356.88
2023-03-29T03:48:30.647Z,101354.13
2023-03-29T03:51:18.451Z,101358.16
2023-03-29T03:53:46.006Z,101352.19
2023-03-29T03:56:34.457Z,101362.34
2023-03-29T03:59:04.730Z,101359.13
2023-03-29T04:02:10.477Z,101351.72
2023-03-29T04:04:40.560Z,101351.09
2023-03-29T04:07:14.715Z,101344.81
2023-03-29T04:10:13.400Z,101347.19
2023-03-29T04:13:07.780Z,101341.72
2023-03-29T04:15:46.201Z,101335.97
2023-03-29T04:18:14.496Z,101333.53
2023-03-29T04:20:46.056Z,101331.28
2023-03-29T04:23:15.026Z,101329.66
2023-03-29T04:25:44.237Z,101325.81
2023-03-29T04:28:31.324Z,101331.28
2023-03-29T04:31:13.715Z,101325.00
2023-03-29T04:34:19.051Z,101321.78
2023-03-29T04:36:50.304Z,101319.53
2023-03-29T04:39:21.853Z,101314.88
2023-03-29T04:41:54.266Z,101311.81
2023-03-29T04:44:26.920Z,101318.09
2023-03-29T04:46:56.009Z,101316.97
2023-03-29T04:49:48.936Z,101312.59
2023-03-29T04:52:35.561Z,101322.44
2023-03-29T04:55:06.204Z,101320.81
2023-03-29T04:58:05.799Z,101320.53
2023-03-29T05:00:39.396Z,101318.91
2023-03-29T05:03:21.114Z,101318.41
2023-03-29T05:06:09.715Z,101311.81
2023-03-29T05:08:39.861Z,101324.66
2023-03-29T05:11:29.520Z,101316.97
2023-03-29T05:14:00.759Z,101316.63
2023-03-29T05:16:30.443Z,101326.16
2023-03-29T05:18:59.129Z,101324.56
2023-03-29T05:21:28.345Z,101319.06
2023-03-29T05:23:58.259Z,101322.63
2023-03-29T05:27:00.483Z,101331.63
2023-03-29T05:29:33.153Z,101326.47
2023-03-29T05:32:16.337Z,101320.81
2023-03-29T05:34:43.737Z,101322.56
2023-03-29T05:37:10.876Z,101326.75
2023-03-29T05:39:49.782Z,101332.03
2023-03-29T05:42:22.555Z,101336.41
2023-03-29T05:45:04.982Z,101326.09
2023-03-29T05:47:32.211Z,101325.28
2023-03-29T05:49:59.341Z,101326.72
2023-03-29T05:52:26.516Z,101322.88
2023-03-29T05:54:53.729Z,101326.72
2023-03-29T05:57:21.535Z,101328.03
2023-03-29T05:59:49.001Z,101324.97
2023-03-29T06:02:17.008Z,101317.59
2023-03-29T06:04:48.873Z,101324.19
2023-03-29T06:07:25.784Z,101324.66
2023-03-29T06:10:20.323Z,101323.56
2023-03-29T06:12:51.976Z,101319.72
2023-03-29T06:15:23.319Z,101321.31
2023-03-29T06:17:54.231Z,101319.88
2023-03-29T06:20:21.589Z,101319.56
2023-03-29T06:22:53.929Z,101322.00
2023-03-29T06:25:22.858Z,101318.00
2023-03-29T06:27:52.103Z,101319.13
2023-03-29T06:30:20.954Z,101321.06
2023-03-29T06:32:51.567Z,101319.13
2023-03-29T06:35:46.956Z,101317.84
2023-03-29T06:38:17.284Z,101329.16
2023-03-29T06:41:13.617Z,101336.56
2023-03-29T06:44:13.217Z,101332.22
2023-03-29T06:46:54.650Z,101317.72
2023-03-29T06:49:21.802Z,101319.47
2023-03-29T06:52:20.997Z,101318.19
2023-03-29T06:54:48.352Z,101324.66
2023-03-29T06:57:15.233Z,101326.44
2023-03-29T06:59:42.433Z,101327.38
2023-03-29T07:02:35.004Z,101311.28
2023-03-29T07:05:12.104Z,101322.88
2023-03-29T07:07:54.215Z,101315.63
2023-03-29T07:10:32.940Z,101335.13
2023-03-29T07:13:19.068Z,101334.47
2023-03-29T07:15:49.000Z,101338.00
2023-03-29T07:18:22.233Z,101336.88
2023-03-29T07:20:49.739Z,101337.84
2023-03-29T07:23:17.465Z,101345.09
2023-03-29T07:25:47.114Z,101343.97
2023-03-29T07:28:14.242Z,101342.16
2023-03-29T07:30:41.675Z,101335.38
2023-03-29T07:33:21.460Z,101337.94
2023-03-29T07:35:55.323Z,101345.47
2023-03-29T07:38:23.940Z,101351.09
2023-03-29T07:41:00.173Z,101352.69
2023-03-29T07:43:44.483Z,101354.13
2023-03-29T07:46:13.659Z,101356.56
2023-03-29T07:48:40.680Z,101349.41
2023-03-29T07:51:10.112Z,101342.09
2023-03-29T07:53:45.497Z,101351.75
2023-03-29T07:56:32.815Z,101356.53
2023-03-29T07:59:22.627Z,101366.13
2023-03-29T08:01:59.641Z,101363.72
2023-03-29T08:04:34.868Z,101368.56
2023-03-29T08:07:33.822Z,101362.22
2023-03-29T08:10:10.048Z,101353.25
2023-03-29T08:13:09.303Z,101360.47
2023-03-29T08:15:48.585Z,101348.88
2023-03-29T08:18:44.959Z,101344.53
2023-03-29T08:21:14.905Z,101353.50
2023-03-29T08:23:47.085Z,101350.31
2023-03-29T08:26:34.170Z,101343.59
2023-03-29T08:29:01.872Z,101348.69
2023-03-29T08:31:28.806Z,101345.38
2023-03-29T08:33:56.593Z,101346.19
2023-03-29T08:36:53.969Z,101345.25
2023-03-29T08:39:27.898Z,101351.84
2023-03-29T08:42:30.262Z,101352.59
2023-03-29T08:44:57.606Z,101350.03
2023-03-29T08:48:07.061Z,101339.66
2023-03-29T08:50:40.816Z,101344.69
2023-03-29T08:53:16.647Z,101327.53
2023-03-29T08:56:08.801Z,101320.94
2023-03-29T08:59:29.270Z,101312.94
2023-03-29T09:01:59.514Z,101315.91
2023-03-29T09:04:35.032Z,101318.78
2023-03-29T09:07:15.487Z,101321.69
2023-03-29T09:09:46.430Z,101302.16
2023-03-29T09:12:44.203Z,101303.97
2023-03-29T09:15:34.606Z,101294.50
2023-03-29T09:18:25.598Z,101291.84
2023-03-29T09:21:11.327Z,101305.06
2023-03-29T09:24:13.760Z,101305.63
2023-03-29T09:26:59.108Z,101315.28
2023-03-29T09:29:42.612Z,101315.16
2023-03-29T09:32:38.064Z,101322.41
2023-03-29T09:35:31.153Z,101333.16
2023-03-29T09:37:59.068Z,101321.78
2023-03-29T09:40:39.733Z,101328.81
2023-03-29T09:43:18.509Z,101319.53
2023-03-29T09:45:53.168Z,101321.03
2023-03-29T09:48:21.279Z,101325.34
2023-03-29T09:50:55.952Z,101317.75
2023-03-29T09:53:24.902Z,101322.03
2023-03-29T09:56:08.738Z,101314.78
2023-03-29T09:58:47.154Z,101330.41
2023-03-29T10:01:20.385Z,101327.97
2023-03-29T10:03:52.549Z,101332.09
2023-03-29T10:06:24.629Z,101321.66
2023-03-29T10:08:59.112Z,101317.28
2023-03-29T10:11:46.763Z,101311.75
2023-03-29T10:14:30.061Z,101322.88
2023-03-29T10:16:57.827Z,101321.75
2023-03-29T10:19:35.067Z,101313.53
2023-03-29T10:22:06.520Z,101299.41
2023-03-29T10:24:34.134Z,101305.75
2023-03-29T10:27:04.260Z,101304.63
2023-03-29T10:29:41.200Z,101310.97
2023-03-29T10:32:36.236Z,101315.44
2023-03-29T10:35:15.010Z,101303.13
2023-03-29T10:37:43.772Z,101303.22
2023-03-29T10:40:26.324Z,101312.22
2023-03-29T10:42:57.903Z,101311.50
2023-03-29T10:45:34.836Z,101296.66
2023-03-29T10:48:04.291Z,101297.50
2023-03-29T10:50:39.616Z,101303.81
2023-03-29T10:53:25.516Z,101303.00
2023-03-29T10:56:29.476Z,101310.97
2023-03-29T10:59:27.545Z,101311.31
2023-03-29T11:02:02.118Z,101302.69
2023-03-29T11:04:41.007Z,101301.25
2023-03-29T11:07:13.934Z,101295.03
2023-03-29T11:10:03.807Z,101296.34
2023-03-29T11:12:55.498Z,101288.78
2023-03-29T11:15:56.459Z,101296.25
2023-03-29T11:18:32.636Z,101297.91
2023-03-29T11:21:10.500Z,101297.78
2023-03-29T11:23:57.448Z,101298.97
2023-03-29T11:26:44.620Z,101294.81
2023-03-29T11:29:44.616Z,101300.34
2023-03-29T11:32:14.353Z,101303.50
2023-03-29T11:35:11.000Z,101304.09
2023-03-29T11:37:55.574Z,101307.72
2023-03-29T11:40:36.940Z,101304.88
2023-03-29T11:43:08.960Z,101297.31
2023-03-29T11:45:41.424Z,101299.44
2023-03-29T11:48:17.855Z,101300.81
2023-03-29T11:51:00.183Z,101296.97
2023-03-29T11:53:33.952Z,101292.06
2023-03-29T11:56:17.068Z,101280.66
2023-03-29T11:58:52.654Z,101281.38
2023-03-29T12:01:35.538Z,101287.91
2023-03-29T12:04:10.801Z,101282.13
2023-03-29T12:06:47.624Z,101284.59
2023-03-29T12:09:39.788Z,101276.00
2023-03-29T12:12:10.874Z,101282.50
2023-03-29T12:14:56.620Z,101280.22
2023-03-29T12:17:30.822Z,101275.19
2023-03-29T12:20:11.101Z,101273.56
2023-03-29T12:22:45.560Z,101272.78
2023-03-29T12:25:19.201Z,101284.81
2023-03-29T12:27:53.917Z,101275.97
2023-03-29T12:30:29.494Z,101277.84
2023-03-29T12:33:02.362Z,101276.78
2023-03-29T12:36:10.842Z,101270.38
2023-03-29T12:39:00.974Z,101262.78
2023-03-29T12:41:53.615Z,101258.38
2023-03-29T12:44:41.796Z,101265.06
2023-03-29T12:47:23.952Z,101256.03
2023-03-29T12:49:57.429Z,101266.16
2023-03-29T12:52:32.196Z,101266.00
2023-03-29T12:55:01.927Z,101257.94
2023-03-29T12:58:10.212Z,101258.72
2023-03-29T13:00:37.197Z,101246.56
2023-03-29T13:03:20.144Z,101245.53
2023-03-29T13:05:48.325Z,101253.03
2023-03-29T13:08:35.995Z,101237.66
2023-03-29T13:11:04.970Z,101245.97
2023-03-29T13:13:40.554Z,101245.53
2023-03-29T13:16:28.650Z,101240.56
2023-03-29T13:19:14.513Z,101239.16
2023-03-29T13:21:41.587Z,101242.63
2023-03-29T13:24:25.268Z,101227.38
2023-03-29T13:27:06.599Z,101230.59
2023-03-29T13:29:55.965Z,101224.56
2023-03-29T13:32:50.683Z,101221.63
2023-03-29T13:35:34.544Z,101214.28
2023-03-29T13:38:18.292Z,101209.63
2023-03-29T13:40:55.982Z,101198.56
2023-03-29T13:43:30.990Z,101195.59
2023-03-29T13:45:57.789Z,101192.28
2023-03-29T13:48:30.318Z,101188.53
2023-03-29T13:51:14.561Z,101197.25
2023-03-29T13:53:51.698Z,101189.28
2023-03-29T13:56:34.463Z,101184.91
2023-03-29T13:59:17.093Z,101179.81
2023-03-29T14:01:50.826Z,101184.91
2023-03-29T14:04:32.635Z,101189.38
2023-03-29T14:07:01.402Z,101186.03
2023-03-29T14:09:34.798Z,101181.69
2023-03-29T14:12:02.400Z,101176.28
2023-03-29T14:14:32.221Z,101185.78
2023-03-29T14:17:00.718Z,101199.56
2023-03-29T14:19:32.605Z,101201.13
2023-03-29T14:22:01.767Z,101188.97
2023-03-29T14:24:37.370Z,101182.66
2023-03-29T14:27:06.986Z,101185.84
2023-03-29T14:29:35.496Z,101167.28
2023-03-29T14:32:17.153Z,101167.50
2023-03-29T14:34:48.441Z,101163.16
2023-03-29T14:37:26.270Z,101155.47
2023-03-29T14:39:56.643Z,101150.56
2023-03-29T14:42:28.996Z,101148.25
2023-03-29T14:45:04.300Z,101152.38
2023-03-29T14:47:33.791Z,101146.28
2023-03-29T14:50:01.878Z,101145.22
2023-03-29T14:52:30.600Z,101137.81
2023-03-29T14:55:01.061Z,101133.53
2023-03-29T14:57:34.140Z,101132.19
2023-03-29T15:00:28.101Z,101134.97
2023-03-29T15:02:58.448Z,101131.91
2023-03-29T15:05:39.106Z,101136.22
2023-03-29T15:08:08.928Z,101132.66
2023-03-29T15:10:38.105Z,101130.47
2023-03-29T15:13:07.601Z,101135.75
2023-03-29T15:15:43.573Z,101118.78
2023-03-29T15:18:14.600Z,101118.81
2023-03-29T15:20:43.604Z,101128.38
2023-03-29T15:23:16.560Z,101110.97
2023-03-29T15:25:50.989Z,101109.03
2023-03-29T15:28:28.477Z,101107.84
2023-03-29T15:31:26.497Z,101112.34
2023-03-29T15:34:13.921Z,101108.41
2023-03-29T15:36:43.328Z,101109.81
2023-03-29T15:39:16.234Z,101111.66
2023-03-29T15:41:45.525Z,101117.16
2023-03-29T15:44:17.393Z,101110.72
2023-03-29T15:46:44.435Z,101109.53
2023-03-29T15:49:12.592Z,101103.94
2023-03-29T15:51:40.126Z,101095.91
2023-03-29T15:54:08.006Z,101085.34
2023-03-29T15:56:41.918Z,101089.34
2023-03-29T15:59:13.051Z,101082.28
2023-03-29T16:01:41.901Z,101081.31
2023-03-29T16:04:17.963Z,101075.69
2023-03-29T16:06:48.749Z,101072.13
2023-03-29T16:09:17.073Z,101070.06
2023-03-29T16:11:45.608Z,101068.81
2023-03-29T16:14:28.367Z,101057.75
2023-03-29T16:16:57.382Z,101058.84
2023-03-29T16:19:25.769Z,101050.88
2023-03-29T16:21:53.432Z,101046.72
2023-03-29T16:24:24.317Z,101033.56
2023-03-29T16:26:55.312Z,101029.56
2023-03-29T16:29:24.151Z,101024.25
2023-03-29T16:31:51.519Z,101022.50
2023-03-29T16:34:19.237Z,101003.53
2023-03-29T16:36:47.854Z,101001.50
2023-03-29T16:39:16.026Z,100984.03
2023-03-29T16:41:45.122Z,100980.84
2023-03-29T16:44:23.769Z,100983.47
2023-03-29T16:46:54.218Z,100977.31
2023-03-29T16:49:21.701Z,100979.38
2023-03-29T16:51:49.004Z,100979.38
2023-03-29T16:54:20.105Z,100978.50
2023-03-29T16:56:47.419Z,100978.22
2023-03-29T16:59:15.576Z,100971.47
2023-03-29T17:01:43.114Z,100973.25
2023-03-29T17:04:10.365Z,100976.31
2023-03-29T17:06:37.540Z,100977.03
2023-03-29T17:09:05.264Z,100975.00
2023-03-29T17:11:32.799Z,100986.75
2023-03-29T17:14:00.319Z,100987.78
2023-03-29T17:16:29.090Z,100983.06
2023-03-29T17:19:00.370Z,100984.28
2023-03-29T17:21:29.400Z,100975.22
2023-03-29T17:23:56.569Z,100976.28
2023-03-29T17:26:23.876Z,100973.47
2023-03-29T17:28:51.233Z,100968.28
2023-03-29T17:31:19.490Z,100972.28
2023-03-29T17:33:47.298Z,100982.81
2023-03-29T17:36:14.227Z,100979.81
2023-03-29T17:38:42.940Z,100981.25
2023-03-29T17:41:10.242Z,100969.34
2023-03-29T17:43:37.315Z,100965.69
2023-03-29T17:46:04.947Z,100962.41
2023-03-29T17:48:32.997Z,100964.34
2023-03-29T17:51:00.208Z,100967.50
2023-03-29T17:53:27.519Z,100960.38
2023-03-29T17:55:55.102Z,100966.31
2023-03-29T17:58:22.042Z,100971.31
2023-03-29T18:00:49.457Z,100960.66
2023-03-29T18:03:16.731Z,100960.66
2023-03-29T18:05:44.113Z,100956.19
2023-03-29T18:08:12.990Z,100958.50
2023-03-29T18:10:40.125Z,100949.00
2023-03-29T18:13:07.572Z,100939.84
2023-03-29T18:15:34.764Z,100929.97
2023-03-29T18:18:01.727Z,100928.38
2023-03-29T18:20:28.728Z,100929.19
2023-03-29T18:22:55.625Z,100923.19
2023-03-29T18:25:24.057Z,100918.78
2023-03-29T18:27:51.447Z,100911.31
2023-03-29T18:30:18.526Z,100906.13
2023-03-29T18:32:45.574Z,100909.69
2023-03-29T18:35:13.971Z,100896.28
2023-03-29T18:37:40.983Z,100891.53
2023-03-29T18:40:09.277Z,100886.03
2023-03-29T18:42:39.197Z,100882.50
2023-03-29T18:45:06.607Z,100867.81
2023-03-29T18:47:37.139Z,100873.41
2023-03-29T18:50:04.764Z,100871.47
2023-03-29T18:52:33.244Z,100871.47
2023-03-29T18:55:00.303Z,100862.00
2023-03-29T18:57:28.148Z,100858.91
2023-03-29T18:59:55.245Z,100864.84
2023-03-29T19:02:22.413Z,100868.41
2023-03-29T19:04:49.359Z,100873.94
2023-03-29T19:07:17.788Z,100876.69
2023-03-29T19:09:45.651Z,100869.94
2023-03-29T19:12:12.855Z,100869.84
2023-03-29T19:14:40.314Z,100869.84
2023-03-29T19:17:08.241Z,100859.63
2023-03-29T19:19:35.648Z,100868.25
2023-03-29T19:22:03.204Z,100856.34
2023-03-29T19:24:30.844Z,100850.84
2023-03-29T19:26:58.466Z,100846.47
2023-03-29T19:29:26.161Z,100827.50
2023-03-29T19:31:55.865Z,100821.94
2023-03-29T19:34:24.088Z,100820.34
2023-03-29T19:36:51.891Z,100811.25
2023-03-29T19:39:18.849Z,100813.69
2023-03-29T19:41:49.096Z,100823.09
2023-03-29T19:44:16.676Z,100818.72
2023-03-29T19:46:43.719Z,100808.88
2023-03-29T19:49:13.744Z,100816.69
2023-03-29T19:51:42.401Z,100813.50
2023-03-29T19:54:14.533Z,100804.81
2023-03-29T19:56:43.018Z,100795.72
2023-03-29T19:59:11.295Z,100803.19
2023-03-29T20:01:40.851Z,100783.53
2023-03-29T20:04:12.001Z,100784.31
2023-03-29T20:06:38.988Z,100769.81
2023-03-29T20:09:06.062Z,100775.84
2023-03-29T20:11:33.332Z,100757.81
2023-03-29T20:14:00.412Z,100757.81
2023-03-29T20:16:33.053Z,100744.81
2023-03-29T20:19:05.555Z,100741.31
2023-03-29T20:21:39.341Z,100743.34
2023-03-29T20:24:08.771Z,100741.84
2023-03-29T20:26:35.708Z,100738.72
2023-03-29T20:29:02.911Z,100734.44
2023-03-29T20:31:30.108Z,100725.00
2023-03-29T20:33:57.627Z,100725.81
2023-03-29T20:36:26.697Z,100722.69
2023-03-29T20:38:56.347Z,100718.78
2023-03-29T20:41:23.484Z,100720.38
2023-03-29T20:43:58.310Z,100696.78
2023-03-29T20:46:33.519Z,100693.66
2023-03-29T20:49:09.045Z,100692.13
2023-03-29T20:51:38.005Z,100679.59
2023-03-29T20:54:07.671Z,100679.59
2023-03-29T20:56:37.377Z,100686.69
2023-03-29T20:59:06.028Z,100677.66
2023-03-29T21:01:41.143Z,100670.19
2023-03-29T21:04:09.486Z,100664.34
2023-03-29T21:06:39.668Z,100663.53
2023-03-29T21:09:07.192Z,100648.56
2023-03-29T21:11:34.673Z,100650.97
2023-03-29T21:14:02.664Z,100646.25
2023-03-29T21:16:29.862Z,100637.16
2023-03-29T21:18:56.734Z,100637.16
2023-03-29T21:21:24.091Z,100632.44
2023-03-29T21:23:51.485Z,100626.19
2023-03-29T21:26:18.454Z,100629.38
2023-03-29T21:28:45.410Z,100632.56
2023-03-29T21:31:12.417Z,100626.69
2023-03-29T21:33:39.635Z,100619.97
2023-03-29T21:36:06.878Z,100623.19
2023-03-29T21:38:33.993Z,100610.97
2023-03-29T21:41:02.461Z,100608.66
2023-03-29T21:43:29.672Z,100611.03
2023-03-29T21:45:57.795Z,100610.69
2023-03-29T21:48:25.662Z,100605.97
2023-03-29T21:50:52.867Z,100604.44
2023-03-29T21:53:19.896Z,100586.34
2023-03-29T21:55:50.195Z,100585.19
2023-03-29T21:58:18.160Z,100579.66
2023-03-29T22:00:46.705Z,100565.00
2023-03-29T22:03:14.891Z,100562.72
2023-03-29T22:05:42.261Z,100566.34
2023-03-29T22:08:12.961Z,100562.44
2023-03-29T22:10:43.406Z,100553.81
2023-03-29T22:13:10.485Z,100569.19
2023-03-29T22:15:37.402Z,100569.25
2023-03-29T22:18:05.211Z,100562.19
2023-03-29T22:20:35.740Z,100562.63
2023-03-29T22:23:03.468Z,100549.31
2023-03-29T22:25:30.549Z,100559.22
2023-03-29T22:27:58.190Z,100569.91
2023-03-29T22:30:25.239Z,100575.84
2023-03-29T22:32:52.336Z,100552.59
2023-03-29T22:35:19.203Z,100543.16
2023-03-29T22:37:46.328Z,100538.41
2023-03-29T22:40:13.959Z,100531.31
2023-03-29T22:42:40.843Z,100523.00
2023-03-29T22:45:08.984Z,100522.56
2023-03-29T22:47:35.893Z,100513.53
2023-03-29T22:50:02.811Z,100509.22
2023-03-29T22:52:29.668Z,100505.66
2023-03-29T22:54:56.789Z,100503.69
2023-03-29T22:57:23.856Z,100500.97
2023-03-29T22:59:51.040Z,100489.53
2023-03-29T23:02:18.260Z,100495.06
2023-03-29T23:04:45.588Z,100478.16
2023-03-29T23:07:12.811Z,100479.72
2023-03-29T23:09:40.097Z,100480.50
2023-03-29T23:12:07.796Z,100477.75
2023-03-29T23:14:35.627Z,100471.06
2023-03-29T23:17:02.754Z,100461.59
2023-03-29T23:19:29.652Z,100464.34
2023-03-29T23:21:56.607Z,100462.38
2023-03-29T23:24:23.785Z,100456.06
2023-03-29T23:26:50.757Z,100462.38
2023-03-29T23:29:18.147Z,100458.47
2023-03-29T23:31:47.908Z,100460.84
2023-03-29T23:34:15.259Z,100450.66
2023-03-29T23:36:42.156Z,100449.91
2023-03-29T23:39:10.399Z,100448.72
2023-03-29T23:41:40.177Z,100440.03
2023-03-29T23:44:07.842Z,100428.19
2023-03-29T23:46:35.146Z,100430.59
2023-03-29T23:49:02.239Z,100425.09
2023-03-29T23:51:29.843Z,100405.78
2023-03-29T23:53:57.417Z,100406.09
2023-03-29T23:56:24.839Z,100385.88
2023-03-29T23:58:51.812Z,100387.41
